Time;durP1;ratioP1;P1;durP2;ratioP2;P2;SDS_P1;SDS_P2;PMS_P1;PMS_P2;Temp;Humidity;BMP_temperature;BMP_pressure;BME280_temperature;BME280_humidity;BME280_pressure;Samples;Min_cycle;Max_cycle;Signal;HPM_P1;HPM_P2
2022/09/09 00:01:41;;;;;;;29.35;21.65;;;14.30;99.90;;;;;;4981309;28;20117;-53
2022/09/09 00:04:20;;;;;;;32.30;23.80;;;14.30;99.90;;;;;;4982266;28;20061;-50
2022/09/09 00:07:18;;;;;;;30.17;21.63;;;14.30;99.90;;;;;;4982307;28;20506;-49
2022/09/09 00:09:57;;;;;;;30.83;23.30;;;14.30;99.90;;;;;;4986121;28;20581;-48
2022/09/09 00:13:01;;;;;;;28.95;20.67;;;14.30;99.90;;;;;;4976823;28;20030;-48
2022/09/09 00:15:31;;;;;;;32.35;21.13;;;14.30;99.90;;;;;;4946015;28;20030;-52
2022/09/09 00:18:22;;;;;;;28.23;21.55;;;14.30;99.90;;;;;;4977586;28;20158;-49
2022/09/09 00:21:12;;;;;;;26.13;20.13;;;14.30;99.90;;;;;;4980254;28;20033;-49
2022/09/09 00:23:40;;;;;;;26.35;21.15;;;14.30;99.90;;;;;;4984517;28;20076;-49
2022/09/09 00:26:18;;;;;;;25.40;20.83;;;14.30;99.90;;;;;;4980003;28;20026;-48
2022/09/09 00:29:14;;;;;;;28.48;21.65;;;14.30;99.90;;;;;;4981940;28;20033;-51
2022/09/09 00:31:40;;;;;;;25.60;20.73;;;14.40;99.90;;;;;;5018383;23;20116;-50
2022/09/09 00:34:12;;;;;;;24.83;20.60;;;14.40;99.90;;;;;;5003704;28;20777;-49
2022/09/09 00:36:38;;;;;;;28.55;21.38;;;14.40;99.90;;;;;;5011000;28;20022;-50
2022/09/09 00:39:05;;;;;;;26.75;21.02;;;14.40;99.90;;;;;;5013263;28;20417;-53
2022/09/09 00:41:52;;;;;;;35.10;23.48;;;14.40;99.90;;;;;;5012472;28;20061;-50
2022/09/09 00:44:37;;;;;;;32.83;23.35;;;14.40;99.90;;;;;;5005452;28;20088;-51
2022/09/09 00:47:43;;;;;;;31.63;22.55;;;14.40;99.90;;;;;;5012813;28;20439;-50
2022/09/09 00:50:39;;;;;;;30.33;22.83;;;14.40;99.90;;;;;;5012549;28;20057;-50
2022/09/09 00:53:55;;;;;;;31.80;22.65;;;14.40;99.90;;;;;;5012221;28;20022;-51
2022/09/09 00:56:28;;;;;;;30.33;21.48;;;14.40;99.90;;;;;;5006023;28;20018;-51
2022/09/09 00:59:13;;;;;;;30.27;21.58;;;14.40;99.90;;;;;;5011286;28;20481;-51
2022/09/09 01:01:40;;;;;;;39.72;24.00;;;14.30;99.90;;;;;;5009871;28;20425;-50
2022/09/09 01:04:16;;;;;;;30.05;21.60;;;14.30;99.90;;;;;;5010837;28;20072;-50
2022/09/09 01:06:46;;;;;;;28.23;19.88;;;14.30;99.90;;;;;;5012527;28;20109;-50
2022/09/09 01:09:17;;;;;;;29.40;20.30;;;14.30;99.90;;;;;;5012482;28;20037;-52
2022/09/09 01:12:16;;;;;;;32.35;22.33;;;14.30;99.90;;;;;;5012263;28;20427;-52
2022/09/09 01:14:51;;;;;;;32.70;23.88;;;14.30;99.90;;;;;;5008442;28;20050;-50
2022/09/09 01:17:22;;;;;;;32.93;22.00;;;14.40;99.90;;;;;;5008121;28;20014;-52
2022/09/09 01:19:55;;;;;;;32.72;22.55;;;14.30;99.90;;;;;;5012481;28;20010;-54
2022/09/09 01:22:36;;;;;;;56.40;24.80;;;14.40;99.90;;;;;;5007054;28;20030;-50
2022/09/09 01:25:37;;;;;;;32.25;22.65;;;14.40;99.90;;;;;;5011731;28;20021;-51
2022/09/09 01:28:09;;;;;;;32.95;22.40;;;14.40;99.90;;;;;;4990967;28;20038;-52
2022/09/09 01:30:37;;;;;;;32.45;22.75;;;14.40;99.90;;;;;;5011987;28;20041;-51
2022/09/09 01:33:04;;;;;;;30.08;22.13;;;14.40;99.90;;;;;;5012042;28;20346;-50
2022/09/09 01:35:45;;;;;;;35.30;24.10;;;14.40;99.90;;;;;;5012114;28;20021;-50
2022/09/09 01:38:10;;;;;;;37.40;24.10;;;14.40;99.90;;;;;;5012298;28;20018;-51
2022/09/09 01:40:36;;;;;;;34.00;23.30;;;14.40;99.90;;;;;;5012003;28;20112;-52
2022/09/09 01:43:03;;;;;;;40.42;25.10;;;14.40;99.90;;;;;;5011718;28;20113;-55
2022/09/09 01:45:29;;;;;;;35.85;24.65;;;14.40;99.90;;;;;;5011849;28;20025;-52
2022/09/09 01:47:56;;;;;;;33.88;23.35;;;14.40;99.90;;;;;;5010637;28;20030;-53
2022/09/09 01:50:22;;;;;;;35.13;23.98;;;14.40;99.90;;;;;;5011809;28;20037;-50
2022/09/09 01:52:52;;;;;;;40.28;25.63;;;14.40;99.90;;;;;;5011276;28;20563;-50
2022/09/09 01:55:24;;;;;;;33.35;23.75;;;14.50;99.90;;;;;;5008072;28;20390;-51
2022/09/09 01:58:07;;;;;;;33.70;24.67;;;14.50;99.90;;;;;;5012061;28;20030;-50
2022/09/09 02:00:37;;;;;;;39.17;25.70;;;14.50;99.90;;;;;;5011779;28;20045;-52
2022/09/09 02:03:18;;;;;;;40.28;26.60;;;14.50;99.90;;;;;;5011531;28;20022;-50
2022/09/09 02:06:02;;;;;;;39.83;26.48;;;14.40;99.90;;;;;;5009998;28;20070;-49
2022/09/09 02:08:42;;;;;;;39.50;26.45;;;14.50;99.90;;;;;;4998448;28;20073;-50
2022/09/09 02:11:19;;;;;;;37.50;25.55;;;14.50;99.90;;;;;;5002847;28;20087;-55
2022/09/09 02:13:51;;;;;;;37.50;25.38;;;14.50;99.90;;;;;;5005173;28;20018;-49
2022/09/09 02:16:44;;;;;;;36.80;25.52;;;14.50;99.90;;;;;;4995914;28;20021;-49
2022/09/09 02:19:26;;;;;;;36.38;24.33;;;14.50;99.90;;;;;;5008773;28;20065;-52
2022/09/09 02:21:54;;;;;;;33.70;23.40;;;14.50;99.90;;;;;;5007164;28;20022;-51
2022/09/09 02:24:22;;;;;;;44.35;26.80;;;14.50;99.90;;;;;;5010988;28;20502;-51
2022/09/09 02:26:52;;;;;;;38.25;24.60;;;14.50;99.90;;;;;;5011365;28;20490;-52
2022/09/09 02:29:41;;;;;;;38.22;24.60;;;14.50;99.90;;;;;;5003756;28;20030;-51
2022/09/09 02:32:19;;;;;;;37.53;24.33;;;14.50;99.90;;;;;;5010586;28;20032;-49
2022/09/09 02:34:56;;;;;;;35.88;23.95;;;14.50;99.90;;;;;;5011159;28;20109;-50
2022/09/09 02:37:25;;;;;;;38.53;25.42;;;14.50;99.90;;;;;;5008113;28;20330;-49
2022/09/09 02:39:50;;;;;;;39.60;24.80;;;14.50;99.90;;;;;;5010888;28;20022;-50
2022/09/09 02:42:16;;;;;;;33.30;23.17;;;14.40;99.90;;;;;;5009170;28;20029;-50
2022/09/09 02:44:42;;;;;;;34.95;23.20;;;14.40;99.90;;;;;;5010908;28;20537;-50
2022/09/09 02:47:13;;;;;;;30.70;21.27;;;14.40;99.90;;;;;;5009523;28;20033;-49
2022/09/09 02:49:49;;;;;;;35.63;22.55;;;14.40;99.90;;;;;;5006160;28;20815;-49
2022/09/09 02:52:20;;;;;;;31.63;21.83;;;14.40;99.90;;;;;;5008786;28;20026;-49
2022/09/09 02:54:45;;;;;;;27.73;20.40;;;14.40;99.90;;;;;;5006992;28;20480;-49
2022/09/09 02:57:17;;;;;;;32.22;21.75;;;14.40;99.90;;;;;;5010801;28;20105;-50
2022/09/09 02:59:44;;;;;;;33.03;22.45;;;14.40;99.90;;;;;;5010561;28;20097;-52
2022/09/09 03:02:11;;;;;;;28.50;20.60;;;14.30;99.90;;;;;;5010320;28;20394;-50
2022/09/09 03:04:37;;;;;;;32.25;21.73;;;14.30;99.90;;;;;;5010573;28;20033;-50
2022/09/09 03:07:03;;;;;;;37.35;22.52;;;14.30;99.90;;;;;;5010115;28;20029;-49
2022/09/09 03:09:30;;;;;;;36.38;22.73;;;14.30;99.90;;;;;;5010050;28;20025;-49
2022/09/09 03:11:55;;;;;;;32.95;21.13;;;14.30;99.90;;;;;;5009791;28;20025;-49
2022/09/09 03:14:24;;;;;;;30.27;19.85;;;14.30;99.90;;;;;;5008522;28;20022;-50
2022/09/09 03:16:53;;;;;;;32.28;20.38;;;14.30;99.90;;;;;;5010227;28;20093;-49
2022/09/09 03:19:20;;;;;;;28.92;19.67;;;14.20;99.90;;;;;;5010042;28;20018;-51
2022/09/09 03:21:47;;;;;;;32.20;20.80;;;14.20;99.90;;;;;;5009565;28;20025;-49
2022/09/09 03:24:13;;;;;;;29.60;19.58;;;14.20;99.90;;;;;;5010120;28;20101;-50
2022/09/09 03:26:40;;;;;;;30.15;20.98;;;14.20;99.90;;;;;;5009007;28;20022;-51
2022/09/09 03:29:06;;;;;;;29.00;19.42;;;14.20;99.90;;;;;;5009818;28;20030;-50
2022/09/09 03:31:33;;;;;;;29.23;18.92;;;14.20;99.90;;;;;;5009386;28;20030;-52
2022/09/09 03:33:59;;;;;;;25.27;18.05;;;14.20;99.90;;;;;;5009671;28;20479;-49
2022/09/09 03:36:26;;;;;;;24.77;19.65;;;14.20;99.90;;;;;;5009739;28;20096;-49
2022/09/09 03:38:53;;;;;;;23.77;18.70;;;14.20;99.90;;;;;;5009520;28;20022;-50
2022/09/09 03:41:19;;;;;;;27.10;19.63;;;14.20;99.90;;;;;;5009505;28;20018;-52
2022/09/09 03:43:45;;;;;;;38.33;20.48;;;14.20;99.90;;;;;;5009635;28;20014;-50
2022/09/09 03:46:10;;;;;;;27.77;18.80;;;14.20;99.90;;;;;;5009828;28;20069;-50
2022/09/09 03:48:36;;;;;;;25.95;20.08;;;14.20;99.90;;;;;;5009590;28;20050;-50
2022/09/09 03:51:02;;;;;;;25.88;19.02;;;14.20;99.90;;;;;;5009401;28;20030;-50
2022/09/09 03:53:29;;;;;;;29.88;20.35;;;14.20;99.90;;;;;;5009181;28;20041;-51
2022/09/09 03:55:59;;;;;;;29.52;20.15;;;14.20;99.90;;;;;;5009381;28;20026;-49
2022/09/09 03:58:26;;;;;;;28.88;19.90;;;14.10;99.90;;;;;;5009744;28;20427;-50
2022/09/09 04:00:55;;;;;;;30.20;21.20;;;14.10;99.90;;;;;;5009786;28;20026;-49
2022/09/09 04:03:22;;;;;;;30.67;21.20;;;14.10;99.90;;;;;;5009805;28;20473;-51
2022/09/09 04:05:49;;;;;;;35.25;22.10;;;14.10;99.90;;;;;;5009205;28;20029;-51
2022/09/09 04:08:14;;;;;;;28.23;20.55;;;14.10;99.90;;;;;;5001506;28;20049;-49
2022/09/09 04:10:41;;;;;;;27.38;19.80;;;14.00;99.90;;;;;;5009235;28;20026;-49
2022/09/09 04:13:07;;;;;;;28.42;20.25;;;14.00;99.90;;;;;;5012894;28;20083;-51
2022/09/09 04:15:35;;;;;;;28.38;19.23;;;14.00;99.90;;;;;;5013189;28;20021;-51
2022/09/09 04:18:01;;;;;;;28.55;19.45;;;14.00;99.90;;;;;;5013076;28;20514;-52
2022/09/09 04:20:26;;;;;;;28.15;20.60;;;14.00;99.90;;;;;;5011800;28;20044;-50
2022/09/09 04:22:52;;;;;;;30.08;21.15;;;14.00;99.90;;;;;;5011885;28;20058;-50
2022/09/09 04:25:17;;;;;;;28.73;21.10;;;14.00;99.90;;;;;;5013049;28;20022;-54
2022/09/09 04:27:44;;;;;;;28.38;20.73;;;14.00;99.90;;;;;;5013189;28;20069;-49
2022/09/09 04:30:10;;;;;;;29.88;21.33;;;14.00;99.90;;;;;;5012655;28;20406;-50
2022/09/09 04:32:36;;;;;;;31.70;20.58;;;14.00;99.90;;;;;;5013635;28;20026;-53
2022/09/09 04:35:02;;;;;;;28.38;21.08;;;14.00;99.90;;;;;;5014176;28;20497;-50
2022/09/09 04:37:28;;;;;;;28.02;20.70;;;14.00;99.90;;;;;;5013246;28;20057;-49
2022/09/09 04:39:54;;;;;;;28.25;20.73;;;14.00;99.90;;;;;;5012778;28;20018;-53
2022/09/09 04:42:19;;;;;;;29.77;21.27;;;14.00;99.90;;;;;;5012771;28;20169;-49
2022/09/09 04:44:45;;;;;;;26.25;19.58;;;14.00;99.90;;;;;;5012905;28;20076;-50
2022/09/09 04:47:11;;;;;;;27.30;21.38;;;14.00;99.90;;;;;;5012806;28;20033;-50
2022/09/09 04:49:37;;;;;;;22.13;17.73;;;14.00;99.90;;;;;;5012981;28;20449;-50
2022/09/09 04:52:03;;;;;;;31.08;21.10;;;13.90;99.90;;;;;;5011921;28;20021;-53
2022/09/09 04:54:29;;;;;;;24.98;19.15;;;13.90;99.90;;;;;;5007790;28;20018;-49
2022/09/09 04:56:55;;;;;;;29.73;21.17;;;13.90;99.90;;;;;;5010214;28;20044;-49
2022/09/09 04:59:21;;;;;;;29.17;20.40;;;13.80;99.90;;;;;;5012810;28;20482;-50
2022/09/09 05:01:47;;;;;;;26.15;19.15;;;13.80;99.90;;;;;;5012322;28;20064;-49
2022/09/09 05:04:15;;;;;;;26.23;19.17;;;13.90;99.90;;;;;;5012724;28;20390;-50
2022/09/09 05:06:42;;;;;;;27.05;19.83;;;13.80;99.90;;;;;;5011022;28;20033;-50
2022/09/09 05:09:07;;;;;;;22.10;17.25;;;13.80;99.90;;;;;;5012654;28;20037;-49
2022/09/09 05:11:36;;;;;;;25.40;18.77;;;13.90;99.90;;;;;;5012224;28;20034;-50
2022/09/09 05:14:02;;;;;;;26.77;18.88;;;13.80;99.90;;;;;;5012473;28;20018;-50
2022/09/09 05:16:28;;;;;;;26.40;18.50;;;13.90;99.90;;;;;;5012538;28;20022;-49
2022/09/09 05:18:53;;;;;;;22.58;17.60;;;13.90;99.90;;;;;;5012513;28;20478;-52
2022/09/09 05:21:22;;;;;;;22.67;17.25;;;13.90;99.90;;;;;;5011857;28;20022;-50
2022/09/09 05:23:48;;;;;;;21.17;16.85;;;13.90;99.90;;;;;;5012081;28;20516;-50
2022/09/09 05:26:17;;;;;;;19.35;15.98;;;13.90;99.90;;;;;;5008292;28;20033;-51
2022/09/09 05:28:43;;;;;;;19.88;16.17;;;13.90;99.90;;;;;;5012573;28;20068;-50
2022/09/09 05:31:12;;;;;;;20.25;15.95;;;13.90;99.90;;;;;;5012005;28;20030;-54
2022/09/09 05:33:40;;;;;;;20.50;15.48;;;13.80;99.90;;;;;;5012060;28;20030;-49
2022/09/09 05:36:10;;;;;;;18.02;15.32;;;13.80;99.90;;;;;;5012102;28;20482;-51
2022/09/09 05:38:36;;;;;;;20.00;15.35;;;13.80;99.90;;;;;;5012221;28;20098;-50
2022/09/09 05:41:02;;;;;;;17.55;14.50;;;13.80;99.90;;;;;;5012362;28;20026;-52
2022/09/09 05:43:29;;;;;;;19.35;15.02;;;13.80;99.90;;;;;;5012001;28;20098;-50
2022/09/09 05:46:09;;;;;;;16.73;13.70;;;13.80;99.90;;;;;;5010697;28;20057;-49
2022/09/09 05:48:37;;;;;;;14.75;12.32;;;13.80;99.90;;;;;;5012025;28;20064;-52
2022/09/09 05:51:04;;;;;;;16.83;13.38;;;13.70;99.90;;;;;;5010343;28;20041;-54
2022/09/09 05:53:36;;;;;;;16.85;13.73;;;13.80;99.90;;;;;;5011764;28;20014;-53
2022/09/09 05:56:03;;;;;;;15.38;11.57;;;13.70;99.90;;;;;;5011679;28;20028;-54
2022/09/09 05:58:30;;;;;;;13.18;11.77;;;13.70;99.90;;;;;;5012263;28;20049;-51
2022/09/09 06:01:10;;;;;;;14.18;10.95;;;13.70;99.90;;;;;;5011668;28;20037;-56
2022/09/09 06:03:37;;;;;;;14.05;12.27;;;13.80;99.90;;;;;;5012158;28;20057;-52
2022/09/09 06:06:08;;;;;;;14.82;11.93;;;13.70;99.90;;;;;;5011538;28;20022;-53
2022/09/09 06:08:39;;;;;;;16.02;12.68;;;13.80;99.90;;;;;;5012124;28;20549;-50
2022/09/09 06:11:08;;;;;;;14.60;11.95;;;13.80;99.90;;;;;;5010314;28;20501;-56
2022/09/09 06:13:33;;;;;;;12.73;10.70;;;13.80;99.90;;;;;;5011303;28;20022;-52
2022/09/09 06:15:59;;;;;;;12.38;10.98;;;13.80;99.90;;;;;;5011284;28;20500;-52
2022/09/09 06:18:29;;;;;;;13.15;10.85;;;13.80;99.90;;;;;;5011746;28;20017;-52
2022/09/09 06:21:06;;;;;;;16.00;11.50;;;13.90;99.90;;;;;;5011462;28;20021;-54
2022/09/09 06:23:35;;;;;;;10.88;9.77;;;13.90;99.90;;;;;;5005300;28;20018;-50
2022/09/09 06:26:06;;;;;;;11.60;10.10;;;13.90;99.90;;;;;;5011321;28;20473;-50
2022/09/09 06:28:33;;;;;;;15.23;10.13;;;13.90;99.90;;;;;;5005640;28;20022;-53
2022/09/09 06:31:00;;;;;;;13.40;10.95;;;14.00;99.90;;;;;;5011139;28;20034;-54
2022/09/09 06:33:27;;;;;;;13.38;11.10;;;14.00;99.90;;;;;;5010308;28;20620;-51
2022/09/09 06:35:54;;;;;;;12.93;10.07;;;14.10;99.90;;;;;;5010963;28;20286;-50
2022/09/09 06:38:21;;;;;;;13.02;10.18;;;14.10;99.90;;;;;;5011342;28;20048;-51
2022/09/09 06:40:55;;;;;;;11.80;9.95;;;14.10;99.90;;;;;;5010840;28;20053;-49
2022/09/09 06:43:21;;;;;;;11.25;9.63;;;14.10;99.90;;;;;;5002516;28;20022;-50
2022/09/09 06:46:01;;;;;;;12.80;10.27;;;14.10;99.90;;;;;;5010872;28;20033;-51
2022/09/09 06:48:30;;;;;;;11.30;9.80;;;14.20;99.90;;;;;;5004889;28;20022;-50
2022/09/09 06:51:11;;;;;;;11.93;10.13;;;14.20;99.90;;;;;;5010692;28;20497;-50
2022/09/09 06:53:37;;;;;;;13.35;10.35;;;14.20;99.90;;;;;;5010040;28;20088;-52
2022/09/09 06:56:21;;;;;;;10.93;9.25;;;14.20;99.90;;;;;;5011206;28;20041;-51
2022/09/09 06:58:48;;;;;;;10.82;9.73;;;14.30;99.90;;;;;;5010991;28;20025;-50
2022/09/09 07:01:17;;;;;;;15.00;11.05;;;14.30;99.90;;;;;;5010478;28;20026;-53
2022/09/09 07:03:45;;;;;;;11.15;9.00;;;14.40;99.90;;;;;;5010690;28;20029;-52
2022/09/09 07:06:20;;;;;;;14.32;10.85;;;14.40;99.90;;;;;;5010345;28;20532;-50
2022/09/09 07:08:54;;;;;;;13.30;10.05;;;14.60;99.90;;;;;;5011261;28;20025;-50
2022/09/09 07:11:23;;;;;;;11.60;10.40;;;14.80;99.90;;;;;;5009126;28;20033;-53
2022/09/09 07:13:49;;;;;;;13.70;10.98;;;14.90;99.90;;;;;;5010531;28;20018;-54
2022/09/09 07:16:20;;;;;;;10.95;9.75;;;15.00;99.90;;;;;;5010176;28;20033;-50
2022/09/09 07:18:46;;;;;;;10.90;9.38;;;15.10;99.90;;;;;;5010286;28;20505;-49
2022/09/09 07:21:13;;;;;;;10.48;8.00;;;15.30;99.90;;;;;;5009865;28;20117;-53
2022/09/09 07:23:40;;;;;;;10.35;9.25;;;15.30;99.90;;;;;;5009752;28;20382;-51
2022/09/09 07:26:11;;;;;;;10.65;8.77;;;15.40;99.90;;;;;;5010434;28;20022;-50
2022/09/09 07:28:37;;;;;;;10.27;7.70;;;15.40;99.90;;;;;;5010435;28;20148;-54
2022/09/09 07:31:04;;;;;;;9.80;8.73;;;15.50;99.90;;;;;;5009972;28;20128;-51
2022/09/09 07:33:31;;;;;;;9.68;8.68;;;15.70;99.90;;;;;;5008402;28;20501;-50
2022/09/09 07:36:10;;;;;;;10.25;8.52;;;15.90;99.90;;;;;;5010016;28;20025;-50
2022/09/09 07:38:45;;;;;;;11.30;8.05;;;16.10;99.90;;;;;;5008688;28;20581;-52
2022/09/09 07:41:16;;;;;;;9.40;7.28;;;16.20;99.90;;;;;;5008261;28;20033;-56
2022/09/09 07:43:43;;;;;;;9.05;6.72;;;16.30;99.90;;;;;;5009886;28;20021;-54
2022/09/09 07:46:10;;;;;;;7.03;6.32;;;16.30;99.90;;;;;;5009727;28;20112;-50
2022/09/09 07:48:36;;;;;;;8.52;6.53;;;16.30;99.90;;;;;;5010224;28;20424;-53
2022/09/09 07:51:11;;;;;;;8.90;5.93;;;16.30;99.90;;;;;;5009488;28;20083;-52
2022/09/09 07:53:38;;;;;;;7.38;5.75;;;16.40;99.90;;;;;;5009584;28;20367;-50
2022/09/09 07:56:12;;;;;;;7.25;5.68;;;16.40;99.90;;;;;;5009604;28;20075;-51
2022/09/09 07:58:39;;;;;;;7.00;4.72;;;16.40;99.90;;;;;;5009940;28;20036;-51
2022/09/09 08:01:11;;;;;;;5.55;4.82;;;16.50;99.90;;;;;;5009741;28;20107;-50
2022/09/09 08:03:37;;;;;;;6.78;4.78;;;16.40;99.90;;;;;;5010278;28;20029;-50
2022/09/09 08:06:06;;;;;;;4.72;4.07;;;16.40;99.90;;;;;;5009463;28;20486;-51
2022/09/09 08:08:33;;;;;;;5.90;4.53;;;16.40;99.90;;;;;;5010128;28;20030;-52
2022/09/09 08:11:11;;;;;;;7.38;4.90;;;16.50;99.90;;;;;;5009514;28;20026;-52
2022/09/09 08:13:38;;;;;;;5.93;4.13;;;16.40;99.90;;;;;;5009622;28;20018;-49
2022/09/09 08:16:15;;;;;;;6.10;4.63;;;16.40;99.90;;;;;;5009374;28;20030;-50
2022/09/09 08:18:41;;;;;;;6.80;4.03;;;16.40;99.90;;;;;;5009739;28;20018;-50
2022/09/09 08:21:17;;;;;;;5.47;3.30;;;16.50;99.90;;;;;;5007409;28;20574;-51
2022/09/09 08:23:44;;;;;;;;;;;16.50;99.90;;;;;;5009625;28;20021;-51
2022/09/09 08:26:12;;;;;;;6.43;3.63;;;16.50;99.90;;;;;;5009718;28;19912;-50
2022/09/09 08:28:39;;;;;;;4.78;3.55;;;16.50;99.90;;;;;;5008340;28;20116;-49
2022/09/09 08:31:14;;;;;;;5.38;3.30;;;16.50;99.90;;;;;;5007547;28;20033;-54
2022/09/09 08:33:41;;;;;;;5.57;3.50;;;16.50;99.90;;;;;;5009697;28;20032;-50
2022/09/09 08:36:10;;;;;;;3.42;3.13;;;16.70;99.90;;;;;;5009587;28;20022;-54
2022/09/09 08:38:37;;;;;;;6.00;3.85;;;16.80;99.90;;;;;;5009905;28;20113;-50
2022/09/09 08:41:26;;;;;;;4.28;3.83;;;17.00;99.90;;;;;;5009683;28;20401;-50
2022/09/09 08:44:17;;;;;;;4.45;4.05;;;17.00;99.90;;;;;;5006514;28;20374;-50
2022/09/09 08:46:42;;;;;;;4.65;3.35;;;17.10;99.90;;;;;;5009434;28;20028;-49
2022/09/09 08:49:38;;;;;;;4.57;3.50;;;17.10;99.90;;;;;;5009396;28;20033;-50
2022/09/09 08:52:12;;;;;;;5.75;2.85;;;17.10;99.90;;;;;;5007168;28;20179;-50
2022/09/09 08:54:38;;;;;;;4.00;3.08;;;17.10;99.90;;;;;;5009517;28;20049;-51
2022/09/09 08:57:13;;;;;;;4.32;3.33;;;17.10;99.90;;;;;;5010162;28;20100;-53
2022/09/09 08:59:39;;;;;;;3.83;3.08;;;17.20;99.90;;;;;;5013205;28;20098;-49
2022/09/09 09:02:27;;;;;;;4.40;3.03;;;17.20;99.90;;;;;;5012494;28;20057;-48
2022/09/09 09:04:56;;;;;;;3.45;2.63;;;17.30;99.90;;;;;;5009952;28;20077;-52
2022/09/09 09:07:54;;;;;;;3.80;3.40;;;17.40;99.90;;;;;;5012703;28;20103;-49
2022/09/09 09:10:47;;;;;;;4.50;2.85;;;17.50;99.90;;;;;;5008689;28;20030;-50
2022/09/09 09:13:24;;;;;;;4.10;2.58;;;17.60;99.90;;;;;;5012590;28;20025;-53
2022/09/09 09:15:58;;;;;;;3.88;3.05;;;17.80;99.90;;;;;;5012846;28;20605;-48
2022/09/09 09:18:24;;;;;;;3.22;2.20;;;17.90;99.90;;;;;;5012505;28;20018;-49
2022/09/09 09:21:14;;;;;;;5.03;2.80;;;18.00;99.90;;;;;;5012178;28;20394;-49
2022/09/09 09:23:58;;;;;;;3.58;2.20;;;18.00;99.90;;;;;;5011890;28;20025;-49
2022/09/09 09:26:30;;;;;;;6.97;2.20;;;18.10;99.90;;;;;;5005580;28;20026;-49
2022/09/09 09:28:58;;;;;;;3.28;1.80;;;18.20;99.90;;;;;;5012055;28;20490;-49
2022/09/09 09:31:25;;;;;;;3.67;1.98;;;18.20;99.90;;;;;;5004962;28;20037;-49
2022/09/09 09:33:55;;;;;;;3.70;1.70;;;18.30;99.90;;;;;;5011973;28;20105;-51
2022/09/09 09:36:32;;;;;;;2.78;2.25;;;18.20;99.90;;;;;;5011955;28;20026;-51
2022/09/09 09:39:00;;;;;;;4.70;1.90;;;18.20;99.90;;;;;;5011825;28;20018;-49
2022/09/09 09:41:29;;;;;;;1.92;1.65;;;18.20;99.90;;;;;;5011406;28;20045;-49
2022/09/09 09:43:55;;;;;;;3.60;1.40;;;18.20;99.90;;;;;;5011400;28;20034;-50
2022/09/09 09:46:23;;;;;;;3.72;1.77;;;18.20;99.90;;;;;;5011576;28;20406;-52
2022/09/09 09:49:05;;;;;;;2.80;1.50;;;18.20;99.90;;;;;;5012438;28;20030;-53
2022/09/09 09:51:32;;;;;;;3.50;1.33;;;18.10;99.90;;;;;;5010597;28;20068;-50
2022/09/09 09:54:13;;;;;;;1.75;1.20;;;18.10;99.90;;;;;;5011164;28;20022;-52
2022/09/09 09:56:40;;;;;;;4.38;1.95;;;18.10;99.90;;;;;;5011284;28;20025;-54
2022/09/09 09:59:05;;;;;;;2.53;1.50;;;18.10;99.90;;;;;;5011207;28;20106;-57
2022/09/09 10:01:34;;;;;;;2.03;1.83;;;18.10;99.90;;;;;;5010782;28;20116;-51
2022/09/09 10:04:03;;;;;;;3.90;1.45;;;18.10;99.90;;;;;;5011163;28;20109;-53
2022/09/09 10:06:33;;;;;;;3.38;1.27;;;18.10;99.90;;;;;;5011371;28;20029;-52
2022/09/09 10:09:01;;;;;;;3.35;1.08;;;18.20;99.90;;;;;;5010332;28;20029;-53
2022/09/09 10:11:46;;;;;;;3.65;1.27;;;18.20;99.90;;;;;;5010870;28;20026;-54
2022/09/09 10:14:25;;;;;;;2.45;0.82;;;18.30;99.90;;;;;;5010761;28;20014;-56
2022/09/09 10:17:03;;;;;;;1.15;1.05;;;18.40;99.90;;;;;;5011303;28;20030;-53
2022/09/09 10:19:37;;;;;;;1.85;0.98;;;18.60;99.90;;;;;;5011339;28;20018;-52
2022/09/09 10:22:24;;;;;;;3.13;1.55;;;18.70;99.90;;;;;;5010938;28;20022;-51
2022/09/09 10:25:22;;;;;;;3.00;1.58;;;18.80;99.90;;;;;;5011407;28;20430;-55
2022/09/09 10:28:22;;;;;;;2.17;1.77;;;18.90;99.90;;;;;;5004640;28;20034;-51
2022/09/09 10:31:06;;;;;;;4.50;2.00;;;19.00;99.90;;;;;;5010352;28;20038;-55
2022/09/09 10:34:15;;;;;;;3.63;2.78;;;19.00;99.90;;;;;;5005954;28;20030;-53
2022/09/09 10:36:48;;;;;;;2.72;2.40;;;19.10;99.90;;;;;;4969942;28;20033;-52
2022/09/09 10:39:36;;;;;;;3.72;2.10;;;19.10;99.90;;;;;;4964650;28;20497;-52
2022/09/09 10:42:09;;;;;;;5.05;2.25;;;19.10;99.90;;;;;;4997057;28;20030;-53
2022/09/09 10:44:55;;;;;;;3.45;1.77;;;19.10;99.90;;;;;;5010917;28;20022;-49
2022/09/09 10:47:44;;;;;;;3.75;2.10;;;19.10;99.90;;;;;;5005667;28;20022;-52
2022/09/09 10:50:12;;;;;;;3.53;1.83;;;19.20;99.90;;;;;;5009023;28;20398;-50
2022/09/09 10:52:54;;;;;;;3.90;1.60;;;19.20;99.90;;;;;;5009054;28;20498;-50
2022/09/09 10:55:25;;;;;;;2.63;1.30;;;19.20;99.90;;;;;;4997089;28;20056;-50
2022/09/09 10:57:55;;;;;;;1.58;1.45;;;19.30;99.90;;;;;;5010681;28;20025;-57
2022/09/09 11:00:41;;;;;;;1.95;1.00;;;19.30;99.90;;;;;;5010654;28;20026;-52
2022/09/09 11:03:12;;;;;;;2.33;1.45;;;19.30;99.90;;;;;;5010410;28;20394;-49
2022/09/09 11:05:49;;;;;;;3.30;1.30;;;19.30;99.90;;;;;;5010409;28;20026;-51
2022/09/09 11:08:26;;;;;;;2.75;0.85;;;19.40;99.90;;;;;;5006210;28;20029;-50
2022/09/09 11:10:56;;;;;;;2.78;1.27;;;19.40;99.90;;;;;;5009971;28;20585;-52
2022/09/09 11:13:48;;;;;;;2.55;1.05;;;19.40;99.90;;;;;;5009578;28;20022;-54
2022/09/09 11:16:19;;;;;;;3.10;1.13;;;19.40;99.90;;;;;;5010361;28;20076;-53
2022/09/09 11:18:46;;;;;;;2.08;1.33;;;19.50;99.90;;;;;;5010051;28;20014;-51
2022/09/09 11:21:22;;;;;;;7.00;1.42;;;19.60;99.90;;;;;;5009448;28;20018;-50
2022/09/09 11:23:58;;;;;;;1.65;1.50;;;19.70;99.90;;;;;;5010208;28;20394;-52
2022/09/09 11:26:44;;;;;;;2.22;1.35;;;19.70;99.90;;;;;;5003229;28;20052;-52
2022/09/09 11:29:38;;;;;;;2.33;1.42;;;19.70;99.90;;;;;;5009792;28;20067;-55
2022/09/09 11:32:10;;;;;;;1.80;1.33;;;19.70;99.90;;;;;;5009698;28;20040;-53
2022/09/09 11:34:43;;;;;;;3.83;1.50;;;19.70;99.90;;;;;;5009975;28;20029;-52
2022/09/09 11:37:32;;;;;;;2.22;1.50;;;19.70;99.90;;;;;;5009941;28;20604;-53
2022/09/09 11:40:10;;;;;;;3.45;1.50;;;19.70;99.90;;;;;;5002172;28;20445;-51
2022/09/09 11:42:35;;;;;;;1.63;1.17;;;19.60;99.90;;;;;;5007752;28;20096;-53
2022/09/09 11:45:20;;;;;;;1.92;1.35;;;19.50;99.90;;;;;;5009539;28;20122;-51
2022/09/09 11:47:59;;;;;;;2.20;1.10;;;19.40;99.90;;;;;;5009522;28;20033;-50
2022/09/09 11:50:25;;;;;;;1.20;1.05;;;19.30;99.90;;;;;;5003028;28;20018;-50
2022/09/09 11:53:03;;;;;;;2.28;1.23;;;19.40;99.90;;;;;;5009124;28;20029;-50
2022/09/09 11:55:32;;;;;;;6.82;1.85;;;19.50;99.90;;;;;;5009795;28;20010;-51
2022/09/09 11:58:25;;;;;;;2.53;1.35;;;19.50;99.90;;;;;;5009523;28;20053;-50
2022/09/09 12:00:52;;;;;;;3.40;1.65;;;19.50;99.90;;;;;;5005083;28;20099;-52
2022/09/09 12:03:39;;;;;;;1.90;1.02;;;19.60;99.90;;;;;;5009328;28;20030;-51
2022/09/09 12:06:15;;;;;;;2.45;1.10;;;19.70;99.90;;;;;;5009012;28;20367;-53
2022/09/09 12:08:45;;;;;;;1.45;1.00;;;19.80;99.90;;;;;;5009679;28;20542;-53
2022/09/09 12:11:11;;;;;;;1.17;1.08;;;19.80;99.90;;;;;;5009111;28;20680;-54
2022/09/09 12:13:37;;;;;;;1.23;1.05;;;19.80;99.90;;;;;;5008878;28;20053;-51
2022/09/09 12:16:05;;;;;;;4.60;1.02;;;19.80;99.90;;;;;;5009202;28;20057;-55
2022/09/09 12:18:39;;;;;;;2.17;1.08;;;19.80;99.90;;;;;;5009329;28;20092;-54
2022/09/09 12:21:31;;;;;;;1.17;1.08;;;19.90;99.90;;;;;;5009112;28;20029;-50
2022/09/09 12:24:07;;;;;;;1.02;0.90;;;19.90;99.90;;;;;;5008969;28;20053;-52
2022/09/09 12:26:53;;;;;;;1.85;1.20;;;19.80;99.90;;;;;;5009139;28;20022;-52
2022/09/09 12:29:18;;;;;;;1.45;1.35;;;19.90;99.90;;;;;;5001209;28;20037;-55
2022/09/09 12:31:48;;;;;;;3.30;1.10;;;19.80;99.90;;;;;;5009226;28;20030;-51
2022/09/09 12:34:33;;;;;;;2.35;1.30;;;19.80;99.90;;;;;;5012694;28;20021;-50
2022/09/09 12:37:04;;;;;;;2.57;1.00;;;19.80;99.90;;;;;;5012755;28;20029;-52
2022/09/09 12:39:45;;;;;;;4.05;1.52;;;19.70;99.90;;;;;;5012721;28;20685;-55
2022/09/09 12:42:18;;;;;;;2.30;1.52;;;19.70;99.90;;;;;;5012965;28;20156;-51
2022/09/09 12:45:02;;;;;;;1.27;1.02;;;19.60;99.90;;;;;;5013038;28;20018;-50
2022/09/09 12:47:37;;;;;;;1.73;1.15;;;19.60;99.90;;;;;;5006720;28;20022;-50
2022/09/09 12:50:03;;;;;;;2.38;1.05;;;19.60;99.90;;;;;;5012489;28;20026;-52
2022/09/09 12:52:35;;;;;;;1.52;1.25;;;19.60;99.90;;;;;;5012266;28;20466;-50
2022/09/09 12:55:04;;;;;;;3.28;1.40;;;19.60;99.90;;;;;;5012566;28;20026;-53
2022/09/09 12:57:35;;;;;;;2.38;1.25;;;19.60;99.90;;;;;;5012596;28;20025;-54
2022/09/09 13:00:28;;;;;;;2.78;1.75;;;19.70;99.90;;;;;;5012309;28;20022;-51
2022/09/09 13:02:56;;;;;;;2.50;1.10;;;19.70;99.90;;;;;;5011136;28;20494;-50
2022/09/09 13:05:25;;;;;;;1.30;1.20;;;19.70;99.90;;;;;;5011986;28;20390;-50